Time;durP1;ratioP1;P1;durP2;ratioP2;P2;SDS_P1;SDS_P2;PMS_P1;PMS_P2;Temp;Humidity;BMP_temperature;BMP_pressure;BME280_temperature;BME280_humidity;BME280_pressure;Samples;Min_cycle;Max_cycle;Signal;HPM_P1;HPM_P2
2022/06/24 00:00:37;;;;;;;9.30;4.80;;;;;;;15.77;59.82;97907.79;105343;1285;22558;-90
2022/06/24 00:03:06;;;;;;;7.40;5.10;;;;;;;15.76;59.72;97908.93;105581;1285;23148;-90
2022/06/24 00:05:34;;;;;;;7.60;4.70;;;;;;;15.76;59.98;97906.73;105526;1285;22572;-90
2022/06/24 00:08:06;;;;;;;8.60;4.90;;;;;;;15.74;59.93;97906.42;105519;1285;24224;-89
2022/06/24 00:10:36;;;;;;;12.80;4.90;;;;;;;15.72;59.91;97903.81;105555;1285;22554;-90
2022/06/24 00:13:06;;;;;;;7.20;5.00;;;;;;;15.71;60.31;97905.16;105393;1285;22679;-88
2022/06/24 00:15:35;;;;;;;6.50;4.60;;;;;;;15.72;60.35;97905.98;105536;1284;22677;-88
2022/06/24 00:18:29;;;;;;;8.50;5.00;;;;;;;15.72;60.32;97905.13;105510;1284;22643;-88
2022/06/24 00:20:57;;;;;;;8.20;5.50;;;;;;;15.72;60.41;97903.95;105495;1284;25632;-89
2022/06/24 00:23:25;;;;;;;6.90;4.80;;;;;;;15.71;60.40;97902.91;105554;1284;22554;-88
2022/06/24 00:25:53;;;;;;;7.30;4.90;;;;;;;15.70;60.40;97901.95;105525;1284;22551;-89
2022/06/24 00:28:25;;;;;;;6.20;4.70;;;;;;;15.70;60.37;97899.86;105497;1284;22916;-88
2022/06/24 00:30:56;;;;;;;9.00;4.70;;;;;;;15.69;60.33;97900.91;105504;1284;22564;-87
2022/06/24 00:33:31;;;;;;;7.20;5.30;;;;;;;15.69;60.54;97900.14;105414;1284;22624;-88
2022/06/24 00:36:00;;;;;;;10.10;4.90;;;;;;;15.68;60.38;97902.41;105328;1284;25440;-89
2022/06/24 00:38:30;;;;;;;7.30;5.10;;;;;;;15.66;60.32;97902.31;105115;1284;22789;-88
2022/06/24 00:41:06;;;;;;;7.30;5.20;;;;;;;15.63;60.49;97901.75;105244;1284;24216;-89
2022/06/24 00:43:36;;;;;;;9.20;5.40;;;;;;;15.63;60.33;97900.09;105483;1284;22874;-88
2022/06/24 00:46:16;;;;;;;9.90;5.60;;;;;;;15.63;60.24;97897.70;105524;1284;22688;-87
2022/06/24 00:48:52;;;;;;;9.00;5.60;;;;;;;15.63;60.20;97901.34;106107;1284;22716;-87
2022/06/24 00:52:11;;;;;;;10.10;5.40;;;;;;;15.63;60.17;97901.73;108714;1284;22069;-87
2022/06/24 00:54:43;;;;;;;7.60;5.50;;;;;;;15.63;60.22;97901.67;105798;1286;22848;-88
2022/06/24 00:57:11;;;;;;;8.00;5.20;;;;;;;15.65;60.21;97899.34;105844;1284;27828;-89
2022/06/24 00:59:40;;;;;;;7.60;4.90;;;;;;;15.67;60.17;97895.20;105181;1284;25466;-89
2022/06/24 01:02:09;;;;;;;8.90;5.40;;;;;;;15.66;60.24;97893.95;105368;1284;22682;-89
2022/06/24 01:04:37;;;;;;;9.80;5.60;;;;;;;15.66;60.27;97892.45;105493;1284;22576;-90
2022/06/24 01:07:04;;;;;;;8.20;5.70;;;;;;;15.64;60.19;97891.45;105487;1284;25773;-90
2022/06/24 01:09:32;;;;;;;11.30;5.80;;;;;;;15.62;60.17;97888.89;105475;1284;25882;-91
2022/06/24 01:12:00;;;;;;;8.20;6.00;;;;;;;15.59;60.15;97889.04;105522;1284;22560;-88
2022/06/24 01:14:28;;;;;;;12.00;5.70;;;;;;;15.55;60.20;97883.36;105271;1285;22599;-86
2022/06/24 01:16:56;;;;;;;8.60;5.80;;;;;;;15.57;60.51;97886.74;105387;1284;24464;-87
2022/06/24 01:19:26;;;;;;;7.30;5.70;;;;;;;15.59;60.62;97884.91;105374;1284;22562;-89
2022/06/24 01:21:54;;;;;;;14.10;5.90;;;;;;;15.61;60.83;97882.98;105574;1284;22561;-89
2022/06/24 01:24:53;;;;;;;10.40;6.10;;;;;;;15.58;60.74;97879.67;105306;1284;22572;-90
2022/06/24 01:27:21;;;;;;;8.40;5.40;;;;;;;15.52;60.84;97878.06;105209;1285;22728;-89
2022/06/24 01:29:49;;;;;;;9.00;6.20;;;;;;;15.49;61.00;97875.45;105249;1284;25601;-89
2022/06/24 01:32:17;;;;;;;13.30;6.70;;;;;;;15.46;60.88;97873.58;105311;1284;25714;-89
2022/06/24 01:34:45;;;;;;;11.90;6.60;;;;;;;15.43;60.79;97871.06;105269;1285;24724;-90
2022/06/24 01:37:13;;;;;;;9.30;6.20;;;;;;;15.41;60.63;97874.95;105331;1284;22638;-90
2022/06/24 01:39:42;;;;;;;7.40;5.70;;;;;;;15.41;60.68;97871.54;105466;1284;22886;-89
2022/06/24 01:42:10;;;;;;;9.60;5.70;;;;;;;15.42;60.60;97870.73;105546;1284;22558;-90
2022/06/24 01:44:38;;;;;;;9.70;6.00;;;;;;;15.44;60.65;97867.93;105478;1284;22555;-92
2022/06/24 01:47:11;;;;;;;12.40;6.50;;;;;;;15.44;60.44;97869.02;105521;1284;22563;-90
2022/06/24 01:49:39;;;;;;;9.60;6.20;;;;;;;15.43;60.52;97869.66;105545;1284;24224;-92
2022/06/24 01:52:07;;;;;;;9.30;5.80;;;;;;;15.41;60.39;97866.23;105586;1285;22577;-90
2022/06/24 01:54:35;;;;;;;8.80;6.40;;;;;;;15.40;60.47;97864.83;104969;1285;222054;-88
2022/06/24 01:57:03;;;;;;;10.10;6.30;;;;;;;15.37;60.39;97866.16;105154;1285;22583;-87
2022/06/24 01:59:31;;;;;;;9.60;7.20;;;;;;;15.30;60.43;97866.59;105508;1284;22629;-89
2022/06/24 02:01:59;;;;;;;9.90;6.70;;;;;;;15.23;60.49;97867.34;108339;1284;22502;-86
2022/06/24 02:04:27;;;;;;;7.30;6.00;;;;;;;15.18;60.67;97866.86;107763;1284;25359;-89
2022/06/24 02:07:49;;;;;;;11.50;6.70;;;;;;;15.16;60.65;97861.90;106209;1284;25358;-89
2022/06/24 02:15:50;;;;;;;7.70;5.10;;;;;;;15.19;61.13;97857.98;105626;1284;25436;-90
2022/06/24 02:18:18;;;;;;;6.70;5.10;;;;;;;15.21;61.07;97859.14;105473;1284;22786;-88
2022/06/24 02:20:46;;;;;;;6.10;4.80;;;;;;;15.23;61.18;97860.60;105283;1284;22928;-87
2022/06/24 02:23:15;;;;;;;9.60;5.10;;;;;;;15.26;61.24;97856.53;105254;1284;22673;-87
2022/06/24 02:25:43;;;;;;;9.00;4.90;;;;;;;15.28;61.21;97857.07;105393;1284;22663;-89
2022/06/24 02:28:11;;;;;;;7.90;5.70;;;;;;;15.28;61.02;97852.27;105450;1285;22770;-89
2022/06/24 02:30:40;;;;;;;10.40;5.50;;;;;;;15.29;61.11;97850.66;105446;1284;23122;-89
2022/06/24 02:33:09;;;;;;;6.30;4.50;;;;;;;15.30;60.98;97851.33;105392;1284;24033;-88
2022/06/24 02:35:39;;;;;;;6.40;4.90;;;;;;;15.31;61.08;97853.67;105355;1284;24318;-86
2022/06/24 02:38:07;;;;;;;7.40;5.20;;;;;;;15.30;61.06;97850.57;105462;1284;22594;-86
2022/06/24 02:40:48;;;;;;;5.70;4.90;;;;;;;15.30;61.06;97850.02;105423;1284;22839;-88
2022/06/24 02:43:27;;;;;;;6.70;5.00;;;;;;;15.30;61.06;97853.41;105141;1285;23252;-86
2022/06/24 02:46:01;;;;;;;7.10;5.20;;;;;;;15.30;60.93;97851.95;105282;1285;22568;-87
2022/06/24 02:48:32;;;;;;;7.70;5.10;;;;;;;15.31;61.04;97850.90;105332;1284;22706;-90
2022/06/24 02:51:03;;;;;;;6.00;4.90;;;;;;;15.33;61.04;97850.27;105559;1284;24414;-88
2022/06/24 02:53:32;;;;;;;6.80;4.70;;;;;;;15.34;61.10;97853.83;105493;1284;22628;-90
2022/06/24 02:56:06;;;;;;;6.80;5.20;;;;;;;15.38;61.01;97855.43;105519;1284;22495;-89
2022/06/24 02:58:35;;;;;;;7.80;5.10;;;;;;;15.42;61.15;97853.01;105212;1285;22625;-90
2022/06/24 03:01:04;;;;;;;7.70;4.80;;;;;;;15.43;61.05;97852.22;105228;1284;22573;-89
2022/06/24 03:03:33;;;;;;;7.20;5.00;;;;;;;15.46;61.08;97856.25;105472;1284;22603;-88
2022/06/24 03:06:02;;;;;;;6.60;4.70;;;;;;;15.50;61.01;97857.48;105366;1284;22569;-89
2022/06/24 03:08:30;;;;;;;6.60;4.60;;;;;;;15.53;61.07;97859.15;105538;1284;22589;-87
2022/06/24 03:10:58;;;;;;;7.10;4.90;;;;;;;15.58;61.17;97858.72;106794;1284;22758;-86
2022/06/24 03:13:26;;;;;;;6.20;4.70;;;;;;;15.61;60.97;97861.09;108390;1285;22584;-86
2022/06/24 03:15:54;;;;;;;6.30;4.80;;;;;;;15.65;61.05;97861.64;106091;1283;22567;-88
2022/06/24 03:18:23;;;;;;;7.60;5.10;;;;;;;15.73;61.10;97863.48;105736;1284;24269;-88
2022/06/24 03:20:52;;;;;;;6.00;4.70;;;;;;;15.78;61.09;97859.15;105368;1284;22704;-89
2022/06/24 03:23:20;;;;;;;7.00;5.10;;;;;;;15.82;61.11;97857.77;105335;1284;24385;-87
2022/06/24 03:25:48;;;;;;;7.30;5.10;;;;;;;15.88;60.99;97854.63;105220;1284;22575;-90
2022/06/24 03:28:16;;;;;;;9.10;5.20;;;;;;;15.90;60.94;97850.36;105550;1284;25357;-89
2022/06/24 03:30:44;;;;;;;9.50;5.60;;;;;;;15.95;61.06;97851.36;105596;1284;22815;-90
2022/06/24 03:33:12;;;;;;;6.20;4.80;;;;;;;16.01;61.01;97851.48;105742;1284;22878;-87
2022/06/24 03:35:40;;;;;;;8.30;5.10;;;;;;;16.09;60.98;97853.35;105606;1284;23400;-88
2022/06/24 03:38:08;;;;;;;6.90;5.20;;;;;;;16.19;60.85;97853.66;105330;1284;22565;-89
2022/06/24 03:40:36;;;;;;;7.90;5.20;;;;;;;16.28;60.81;97854.53;105168;1285;22680;-85
2022/06/24 03:43:04;;;;;;;10.40;5.30;;;;;;;16.37;60.68;97857.39;105330;1285;24232;-89
2022/06/24 03:45:32;;;;;;;9.80;5.30;;;;;;;16.45;60.63;97862.48;105522;1284;22734;-90
2022/06/24 03:48:00;;;;;;;9.90;5.40;;;;;;;16.54;60.49;97866.12;105145;1284;23678;-89
2022/06/24 03:50:28;;;;;;;6.70;5.40;;;;;;;16.61;60.35;97867.48;105371;1284;25651;-90
2022/06/24 03:52:56;;;;;;;7.20;5.30;;;;;;;16.65;60.44;97869.86;105346;1284;22572;-88
2022/06/24 03:55:24;;;;;;;11.80;6.10;;;;;;;16.70;60.36;97870.29;105345;1284;25208;-87
2022/06/24 03:57:52;;;;;;;10.50;5.00;;;;;;;16.73;60.40;97873.12;105375;1284;22687;-89
2022/06/24 04:00:20;;;;;;;8.50;5.50;;;;;;;16.76;60.36;97868.40;105346;1284;25370;-86
2022/06/24 04:02:48;;;;;;;10.20;5.20;;;;;;;16.79;60.25;97871.00;105374;1284;25423;-88
2022/06/24 04:05:16;;;;;;;8.40;5.40;;;;;;;16.83;60.29;97869.48;105499;1284;22570;-91
2022/06/24 04:07:44;;;;;;;10.90;6.00;;;;;;;16.88;60.28;97872.59;105702;1284;22565;-90
2022/06/24 04:10:12;;;;;;;7.50;5.60;;;;;;;16.93;60.12;97869.50;105592;1284;25564;-92
2022/06/24 04:12:40;;;;;;;8.50;5.70;;;;;;;17.00;60.08;97869.78;105597;1284;25165;-89
2022/06/24 04:15:14;;;;;;;11.40;6.30;;;;;;;17.07;60.07;97871.94;105374;1284;25407;-90
2022/06/24 04:17:43;;;;;;;7.70;5.40;;;;;;;17.14;59.93;97873.88;105609;1284;24201;-92
2022/06/24 04:20:13;;;;;;;8.00;5.20;;;;;;;17.21;59.85;97874.33;105864;1284;22895;-91
2022/06/24 04:22:42;;;;;;;7.80;5.00;;;;;;;17.30;59.72;97875.30;107479;1283;22955;-86
2022/06/24 04:25:11;;;;;;;7.10;5.40;;;;;;;17.38;59.63;97874.52;108204;1284;23972;-90
2022/06/24 04:27:39;;;;;;;8.80;5.30;;;;;;;17.47;59.47;97873.84;107686;1284;22568;-90
2022/06/24 04:30:09;;;;;;;8.10;5.40;;;;;;;17.55;59.37;97874.33;106260;1284;24241;-88
2022/06/24 04:32:38;;;;;;;12.20;5.40;;;;;;;17.63;59.28;97870.64;105551;1284;22571;-90
2022/06/24 04:35:06;;;;;;;9.90;5.30;;;;;;;17.72;59.30;97869.43;105479;1284;22606;-91
2022/06/24 04:37:36;;;;;;;7.30;5.50;;;;;;;17.80;59.12;97872.77;105612;1284;22937;-92
2022/06/24 04:40:10;;;;;;;8.50;5.60;;;;;;;17.87;59.02;97871.91;105312;1284;25425;-91
2022/06/24 04:42:38;;;;;;;7.30;5.50;;;;;;;17.94;58.87;97876.54;105606;1284;22553;-90
2022/06/24 04:45:07;;;;;;;10.90;5.60;;;;;;;18.00;58.52;97877.71;105369;1283;22558;-90
2022/06/24 04:47:35;;;;;;;11.60;5.50;;;;;;;18.04;58.51;97877.80;105478;1284;22572;-89
2022/06/24 04:50:04;;;;;;;11.50;5.20;;;;;;;18.08;58.54;97873.65;105632;1284;22569;-90
2022/06/24 04:52:33;;;;;;;8.00;5.70;;;;;;;18.15;58.43;97872.73;105794;1284;22575;-92
2022/06/24 04:55:02;;;;;;;7.80;5.60;;;;;;;18.20;58.23;97871.36;105284;1284;24271;-90
2022/06/24 04:57:30;;;;;;;7.10;5.40;;;;;;;18.20;58.18;97872.09;105428;1284;23312;-88
2022/06/24 05:00:01;;;;;;;9.10;6.00;;;;;;;18.22;58.05;97873.39;105479;1284;25366;-88
2022/06/24 05:02:29;;;;;;;7.00;5.30;;;;;;;18.24;58.00;97874.61;105425;1284;24244;-89
2022/06/24 05:04:58;;;;;;;9.20;5.20;;;;;;;18.28;58.01;97876.49;105147;1285;24230;-86
2022/06/24 05:07:25;;;;;;;8.20;5.20;;;;;;;18.33;58.02;97873.73;105098;1285;23359;-87
2022/06/24 05:09:54;;;;;;;8.80;5.20;;;;;;;18.37;57.96;97872.48;105270;1284;23418;-88
2022/06/24 05:12:21;;;;;;;9.90;5.50;;;;;;;18.45;57.88;97872.36;105088;1284;24270;-89
2022/06/24 05:14:49;;;;;;;6.70;4.90;;;;;;;18.50;57.72;97875.21;105325;1284;24015;-87
2022/06/24 05:17:23;;;;;;;8.60;5.20;;;;;;;18.55;57.85;97876.26;105325;1284;24227;-88
2022/06/24 05:19:52;;;;;;;10.60;6.10;;;;;;;18.62;57.80;97881.50;105345;1284;22563;-88
2022/06/24 05:22:20;;;;;;;12.20;5.20;;;;;;;18.67;57.77;97875.29;105151;1285;25664;-87
2022/06/24 05:24:48;;;;;;;6.40;4.80;;;;;;;18.69;57.75;97871.77;105434;1284;24236;-87
2022/06/24 05:27:16;;;;;;;9.20;5.20;;;;;;;18.74;57.63;97872.41;105257;1283;24215;-87
2022/06/24 05:29:44;;;;;;;10.30;5.80;;;;;;;18.79;57.50;97870.16;105332;1284;22671;-90
2022/06/24 05:32:12;;;;;;;8.10;5.70;;;;;;;18.82;57.33;97870.41;106280;1284;22570;-86
2022/06/24 05:34:40;;;;;;;7.10;5.30;;;;;;;18.80;57.07;97873.48;108729;1284;22570;-87
2022/06/24 05:37:08;;;;;;;10.00;5.30;;;;;;;18.82;57.26;97872.89;106389;1285;22543;-88
2022/06/24 05:39:36;;;;;;;10.30;5.40;;;;;;;18.88;57.19;97872.70;105975;1285;22922;-88
2022/06/24 05:42:04;;;;;;;11.40;5.20;;;;;;;18.94;57.15;97872.25;105479;1285;24252;-90
2022/06/24 05:44:32;;;;;;;6.30;4.70;;;;;;;19.03;57.04;97872.20;105259;1284;24121;-88
2022/06/24 05:47:00;;;;;;;9.80;4.60;;;;;;;19.09;56.90;97872.27;105357;1285;25362;-89
2022/06/24 05:49:28;;;;;;;7.10;4.70;;;;;;;19.15;56.75;97871.23;105423;1284;24219;-89
2022/06/24 05:51:56;;;;;;;9.60;4.90;;;;;;;19.20;56.49;97871.91;105062;1284;23976;-89
2022/06/24 05:57:10;;;;;;;12.10;4.60;;;;;;;19.35;56.69;97880.17;105247;1285;22575;-88
2022/06/24 05:59:39;;;;;;;6.40;4.50;;;;;;;19.46;56.43;97879.73;105189;1285;24222;-89
2022/06/24 06:02:07;;;;;;;6.80;5.10;;;;;;;19.52;56.24;97882.13;105415;1284;22566;-89
2022/06/24 06:04:35;;;;;;;10.60;5.10;;;;;;;19.57;56.28;97880.04;105183;1285;22895;-88
2022/06/24 06:07:03;;;;;;;9.40;5.20;;;;;;;19.64;56.05;97883.80;105180;1284;25469;-89
2022/06/24 06:09:33;;;;;;;7.10;4.60;;;;;;;19.71;56.21;97882.00;105373;1284;23401;-88
2022/06/24 06:12:01;;;;;;;9.90;5.00;;;;;;;19.79;56.08;97879.50;105418;1285;22594;-88
2022/06/24 06:14:29;;;;;;;9.30;4.50;;;;;;;19.89;56.06;97880.80;105260;1285;22880;-89
2022/06/24 06:17:02;;;;;;;10.10;4.50;;;;;;;20.00;56.00;97883.36;105460;1285;26859;-88
2022/06/24 06:19:33;;;;;;;7.30;4.20;;;;;;;20.09;55.63;97881.81;105427;1284;24788;-88
2022/06/24 06:22:03;;;;;;;8.60;4.70;;;;;;;20.18;55.64;97885.51;105467;1284;25368;-87
2022/06/24 06:24:31;;;;;;;9.70;4.40;;;;;;;20.30;55.44;97891.11;105147;1285;22873;-86
2022/06/24 06:27:00;;;;;;;6.50;4.30;;;;;;;20.42;55.21;97888.75;105279;1284;25352;-87
2022/06/24 06:29:28;;;;;;;6.30;4.00;;;;;;;20.50;55.07;97889.45;105127;1285;22698;-87
2022/06/24 06:31:56;;;;;;;11.50;4.40;;;;;;;20.62;55.06;97890.45;105275;1284;22572;-85
2022/06/24 06:34:24;;;;;;;8.50;4.10;;;;;;;20.73;54.87;97891.67;105178;1285;22669;-86
2022/06/24 06:36:52;;;;;;;6.30;4.30;;;;;;;20.85;54.87;97890.70;105446;1284;25337;-86
2022/06/24 06:39:20;;;;;;;6.20;4.30;;;;;;;20.98;54.36;97894.41;105420;1285;22645;-85
2022/06/24 06:41:48;;;;;;;7.70;4.90;;;;;;;21.06;53.83;97891.64;105481;1285;22715;-86
2022/06/24 06:44:16;;;;;;;8.70;4.60;;;;;;;21.16;53.78;97892.17;105703;1284;22869;-87
2022/06/24 06:46:44;;;;;;;8.80;4.40;;;;;;;21.24;53.78;97887.84;105114;1285;22566;-87
2022/06/24 06:49:12;;;;;;;6.30;4.20;;;;;;;21.36;53.72;97890.61;105294;1284;22631;-87
2022/06/24 06:51:40;;;;;;;9.40;4.00;;;;;;;21.49;53.61;97887.38;105303;1284;25341;-86
2022/06/24 06:54:08;;;;;;;7.10;4.70;;;;;;;21.62;52.99;97884.94;105186;1285;24311;-85
2022/06/24 06:56:38;;;;;;;7.60;4.40;;;;;;;21.69;52.97;97885.35;105405;1284;22870;-86
2022/06/24 06:59:08;;;;;;;11.00;4.10;;;;;;;21.78;52.38;97881.08;105588;1284;25208;-85
2022/06/24 07:01:36;;;;;;;11.20;4.40;;;;;;;21.87;52.40;97886.82;105034;1285;22610;-87
2022/06/24 07:04:08;;;;;;;6.70;3.80;;;;;;;21.94;51.66;97881.89;105005;1286;22576;-86
2022/06/24 07:06:39;;;;;;;6.70;3.70;;;;;;;22.03;51.28;97884.27;105127;1285;22582;-87
2022/06/24 07:09:13;;;;;;;5.30;3.70;;;;;;;22.07;50.57;97882.04;105070;1284;25913;-88
2022/06/24 07:11:44;;;;;;;9.40;4.30;;;;;;;22.12;50.66;97881.47;105381;1284;25241;-86
2022/06/24 07:14:12;;;;;;;6.20;4.00;;;;;;;22.21;50.06;97881.12;105354;1284;23760;-87
2022/06/24 07:16:40;;;;;;;12.30;4.60;;;;;;;22.29;49.44;97883.63;105333;1284;22786;-87
2022/06/24 07:19:08;;;;;;;9.90;4.20;;;;;;;22.34;49.26;97880.61;105142;1284;25371;-86
2022/06/24 07:21:36;;;;;;;8.90;3.90;;;;;;;22.43;49.24;97879.30;105120;1285;24420;-90
2022/06/24 07:24:04;;;;;;;6.20;4.00;;;;;;;22.51;49.06;97876.78;105062;1286;22619;-87
2022/06/24 07:26:32;;;;;;;8.30;4.10;;;;;;;22.57;47.92;97873.01;105071;1285;22614;-87
2022/06/24 07:29:00;;;;;;;8.50;3.60;;;;;;;22.63;48.19;97872.27;105494;1284;22557;-91
2022/06/24 07:31:30;;;;;;;11.00;3.70;;;;;;;22.72;47.57;97872.65;105123;1285;22545;-81
2022/06/24 07:33:59;;;;;;;9.10;3.80;;;;;;;22.80;47.23;97873.98;105153;1286;25296;-85
2022/06/24 07:36:32;;;;;;;6.60;3.60;;;;;;;22.94;46.62;97873.39;105319;1285;25595;-86
2022/06/24 07:39:01;;;;;;;10.40;3.50;;;;;;;23.08;46.00;97870.29;105220;1286;22569;-85
2022/06/24 07:41:29;;;;;;;13.50;3.80;;;;;;;23.17;45.38;97869.88;105238;1285;22718;-86
2022/06/24 07:43:57;;;;;;;7.00;3.80;;;;;;;23.28;45.52;97867.67;105476;1284;24017;-85
2022/06/24 07:46:27;;;;;;;7.90;3.70;;;;;;;23.43;44.99;97864.14;105248;1285;25238;-81
2022/06/24 07:48:55;;;;;;;9.50;3.80;;;;;;;23.53;44.28;97863.97;105594;1285;22735;-86
2022/06/24 07:51:26;;;;;;;4.90;3.70;;;;;;;23.62;43.69;97860.63;105355;1285;25372;-87
2022/06/24 07:53:55;;;;;;;7.60;3.60;;;;;;;23.70;43.37;97859.42;105529;1285;25299;-86
2022/06/24 08:00:57;;;;;;;5.60;3.30;;;;;;;23.92;42.93;97851.26;105549;1285;23253;-88
2022/06/24 08:03:25;;;;;;;6.20;3.50;;;;;;;24.02;42.92;97847.20;105112;1285;22596;-86
2022/06/24 08:05:53;;;;;;;4.50;3.10;;;;;;;24.11;42.66;97847.77;105146;1286;23381;-89
2022/06/24 08:12:57;;;;;;;6.20;3.20;;;;;;;24.42;41.88;97844.46;105644;1285;22562;-88
2022/06/24 08:15:25;;;;;;;4.20;2.80;;;;;;;24.48;40.94;97840.30;105595;1285;24290;-87
2022/06/24 08:17:53;;;;;;;5.50;2.90;;;;;;;24.53;40.95;97842.12;105488;1285;22896;-88
2022/06/24 08:20:21;;;;;;;6.10;3.10;;;;;;;24.59;40.72;97836.30;105010;1285;22554;-88
2022/06/24 08:22:49;;;;;;;8.80;3.30;;;;;;;24.63;39.99;97836.77;105436;1285;22556;-87
2022/06/24 08:25:17;;;;;;;6.50;3.60;;;;;;;24.66;40.63;97834.26;105489;1285;22571;-87
2022/06/24 08:27:51;;;;;;;8.70;2.90;;;;;;;24.77;40.80;97832.67;105403;1285;22672;-88
2022/06/24 08:30:19;;;;;;;6.60;3.40;;;;;;;24.87;40.65;97832.11;105333;1285;22682;-87
2022/06/24 08:32:47;;;;;;;7.70;3.30;;;;;;;24.96;40.53;97836.13;105489;1285;22587;-87
2022/06/24 08:35:16;;;;;;;8.30;4.00;;;;;;;24.98;39.68;97831.16;105542;1284;24113;-87
2022/06/24 08:37:54;;;;;;;8.10;3.50;;;;;;;25.02;40.62;97828.32;105297;1285;25285;-87
2022/06/24 08:40:27;;;;;;;8.20;3.60;;;;;;;25.09;40.26;97824.52;105387;1285;24225;-87
2022/06/24 08:43:00;;;;;;;7.10;4.00;;;;;;;25.20;39.89;97825.56;105608;1284;24261;-85
2022/06/24 08:45:29;;;;;;;7.40;3.40;;;;;;;25.32;39.60;97824.74;105263;1284;22604;-87
2022/06/24 08:47:59;;;;;;;7.10;3.30;;;;;;;25.37;39.51;97816.54;105504;1284;22676;-86
2022/06/24 08:50:27;;;;;;;5.40;3.10;;;;;;;25.46;39.65;97813.50;105516;1283;25367;-86
2022/06/24 08:52:56;;;;;;;7.90;3.60;;;;;;;25.54;39.57;97809.61;105472;1284;24118;-86
2022/06/24 08:55:25;;;;;;;7.00;3.40;;;;;;;25.64;39.57;97806.73;105579;1284;22593;-87
2022/06/24 08:57:53;;;;;;;6.90;3.50;;;;;;;25.80;39.76;97808.01;106528;1285;23011;-85
2022/06/24 09:00:22;;;;;;;5.50;2.80;;;;;;;25.95;39.38;97805.17;105597;1284;22665;-87
2022/06/24 09:02:50;;;;;;;7.50;3.40;;;;;;;26.03;39.02;97806.71;105485;1288;23026;-87
2022/06/24 09:05:18;;;;;;;14.50;3.20;;;;;;;26.09;39.16;97801.94;105489;1286;24219;-86
2022/06/24 09:07:46;;;;;;;8.60;3.30;;;;;;;26.13;39.03;97801.05;105592;1284;25403;-88
2022/06/24 09:10:15;;;;;;;5.00;3.10;;;;;;;26.19;39.04;97799.36;105582;1284;22708;-87
2022/06/24 09:12:45;;;;;;;6.40;3.40;;;;;;;26.24;38.95;97802.23;105415;1284;22567;-84
2022/06/24 09:15:15;;;;;;;8.40;3.20;;;;;;;26.34;38.69;97800.58;105612;1284;24423;-87
2022/06/24 09:17:44;;;;;;;5.70;3.00;;;;;;;26.33;38.23;97798.77;105188;1285;23224;-86
2022/06/24 09:20:26;;;;;;;10.00;3.70;;;;;;;26.34;38.01;97794.27;105563;1285;22573;-87
2022/06/24 09:23:09;;;;;;;6.60;2.50;;;;;;;26.37;38.30;97792.03;105612;1284;25428;-87
2022/06/24 09:25:53;;;;;;;8.50;3.00;;;;;;;26.49;37.58;97795.11;105605;1284;22574;-90
2022/06/24 09:28:47;;;;;;;6.20;2.90;;;;;;;26.63;37.11;97792.09;105599;1285;22880;-90
2022/06/24 09:31:19;;;;;;;6.90;3.10;;;;;;;26.68;36.47;97794.02;105604;1284;22705;-89
2022/06/24 09:34:41;;;;;;;4.30;2.70;;;;;;;26.71;36.06;97794.23;105441;1285;22546;-89
2022/06/24 09:37:10;;;;;;;6.80;2.50;;;;;;;26.80;36.67;97789.02;105567;1284;26642;-88
2022/06/24 09:39:38;;;;;;;6.40;2.60;;;;;;;26.90;36.82;97794.44;105497;1284;22668;-87
2022/06/24 09:42:06;;;;;;;4.00;2.70;;;;;;;27.04;36.76;97788.85;105379;1284;24285;-88
2022/06/24 09:44:45;;;;;;;7.20;2.40;;;;;;;27.16;36.22;97787.17;105476;1284;25498;-87
2022/06/24 09:47:22;;;;;;;10.70;2.70;;;;;;;27.25;36.04;97784.07;105306;1286;22571;-88
2022/06/24 09:49:57;;;;;;;5.00;2.50;;;;;;;27.35;36.32;97782.61;105478;1284;22790;-88
2022/06/24 09:52:26;;;;;;;15.60;2.90;;;;;;;27.44;35.38;97775.72;105370;1284;22897;-89
2022/06/24 09:54:55;;;;;;;7.20;2.90;;;;;;;27.47;35.30;97779.63;105577;1284;22544;-90
2022/06/24 09:57:24;;;;;;;6.20;3.30;;;;;;;27.56;34.79;97775.80;106050;1284;23363;-87
2022/06/24 10:02:40;;;;;;;5.50;2.90;;;;;;;27.68;35.01;97775.89;106084;1284;22611;-90
2022/06/24 10:05:09;;;;;;;5.30;2.50;;;;;;;27.77;34.60;97777.66;105655;1284;22679;-90
2022/06/24 10:07:43;;;;;;;5.80;2.90;;;;;;;27.85;34.67;97769.59;105539;1284;25347;-91
2022/06/24 10:10:14;;;;;;;6.10;2.20;;;;;;;28.00;34.92;97771.27;105315;1284;22684;-88
2022/06/24 10:13:37;;;;;;;4.80;2.30;;;;;;;28.04;33.92;97768.12;105625;1284;25355;-89
2022/06/24 10:16:07;;;;;;;4.60;2.80;;;;;;;28.02;34.35;97765.94;105294;1285;22559;-91
2022/06/24 10:18:48;;;;;;;5.10;2.50;;;;;;;28.05;34.40;97766.60;105608;1286;22580;-88
2022/06/24 10:21:18;;;;;;;5.20;2.40;;;;;;;28.19;34.28;97766.33;105829;1284;22567;-87
2022/06/24 10:23:52;;;;;;;7.10;2.50;;;;;;;28.24;33.17;97759.68;105137;1286;22575;-88
2022/06/24 10:26:47;;;;;;;2.70;2.30;;;;;;;28.23;33.74;97756.75;105400;1284;24410;-87
2022/06/24 10:29:18;;;;;;;4.60;2.60;;;;;;;28.35;33.42;97759.17;104630;1293;22579;-87
2022/06/24 10:31:49;;;;;;;4.10;2.30;;;;;;;28.39;32.94;97759.11;104592;1294;22668;-88
2022/06/24 10:34:25;;;;;;;4.40;2.10;;;;;;;28.42;33.27;97757.98;104863;1294;22659;-88
2022/06/24 10:36:59;;;;;;;3.00;2.10;;;;;;;28.46;32.09;97750.62;104817;1294;24382;-87
2022/06/24 10:39:29;;;;;;;5.50;2.50;;;;;;;28.37;32.72;97751.55;104532;1294;23361;-87
2022/06/24 10:42:06;;;;;;;3.10;1.90;;;;;;;28.45;32.52;97749.61;104490;1294;22832;-88
2022/06/24 10:44:35;;;;;;;5.90;2.10;;;;;;;28.56;32.31;97746.90;104975;1294;25440;-88
2022/06/24 10:47:12;;;;;;;3.70;2.00;;;;;;;28.68;31.99;97746.85;104705;1294;22689;-87
2022/06/24 10:49:52;;;;;;;3.40;2.30;;;;;;;28.70;32.00;97745.47;104814;1294;23458;-86
2022/06/24 10:52:30;;;;;;;4.50;2.20;;;;;;;28.74;32.28;97741.90;104766;1294;22692;-86
2022/06/24 10:55:30;;;;;;;6.60;2.20;;;;;;;28.82;32.06;97740.89;104790;1294;23311;-86
2022/06/24 10:58:06;;;;;;;3.00;1.90;;;;;;;28.96;31.58;97733.02;104736;1294;22816;-87
2022/06/24 11:00:36;;;;;;;4.70;2.10;;;;;;;28.98;31.18;97729.31;104830;1294;22699;-85
2022/06/24 11:03:15;;;;;;;5.00;2.20;;;;;;;29.07;31.78;97730.07;104766;1293;22598;-83
2022/06/24 11:05:45;;;;;;;4.80;2.10;;;;;;;29.21;31.52;97727.34;104739;1294;25240;-82
2022/06/24 11:08:19;;;;;;;3.60;2.30;;;;;;;29.33;31.29;97724.86;105559;1284;22719;-88
2022/06/24 11:10:49;;;;;;;7.40;2.50;;;;;;;29.37;30.89;97724.37;105580;1285;22551;-87
2022/06/24 11:13:18;;;;;;;6.00;2.00;;;;;;;29.46;30.94;97717.05;105612;1284;25483;-87
2022/06/24 11:15:48;;;;;;;5.90;2.20;;;;;;;29.62;31.12;97715.70;105824;1285;22789;-86
2022/06/24 11:18:20;;;;;;;3.70;2.70;;;;;;;29.73;30.89;97714.11;106110;1284;25991;-87
2022/06/24 11:20:51;;;;;;;4.00;2.30;;;;;;;29.76;30.58;97715.80;105735;1284;25283;-89
2022/06/24 11:23:21;;;;;;;4.10;2.30;;;;;;;29.73;30.60;97707.92;106406;1284;22565;-88
2022/06/24 11:25:57;;;;;;;3.90;2.30;;;;;;;29.76;30.52;97712.52;105768;1284;23344;-90
2022/06/24 11:28:30;;;;;;;3.60;2.30;;;;;;;29.83;29.65;97707.05;105679;1284;24678;-88
2022/06/24 11:31:20;;;;;;;6.90;2.40;;;;;;;29.72;29.65;97703.89;105843;1284;23783;-89
2022/06/24 11:34:08;;;;;;;3.50;2.00;;;;;;;29.76;30.07;97700.64;106121;1285;22496;-89
2022/06/24 11:36:37;;;;;;;5.10;2.30;;;;;;;29.87;29.90;97699.59;106738;1284;22569;-88
2022/06/24 11:39:09;;;;;;;3.00;1.70;;;;;;;29.97;29.47;97689.05;107882;1285;22563;-87
2022/06/24 11:41:41;;;;;;;6.30;2.00;;;;;;;30.18;29.75;97693.29;107348;1285;22579;-90
2022/06/24 11:44:39;;;;;;;7.70;2.10;;;;;;;30.28;29.64;97688.27;106133;1286;22608;-88
2022/06/24 11:47:08;;;;;;;7.60;2.20;;;;;;;30.40;29.50;97683.70;105679;1285;25452;-88
2022/06/24 11:49:42;;;;;;;5.40;2.20;;;;;;;30.57;29.38;97684.70;105508;1285;22600;-88
2022/06/24 11:52:13;;;;;;;10.70;2.50;;;;;;;30.71;28.83;97686.23;105706;1285;22575;-88
2022/06/24 11:54:41;;;;;;;7.70;2.20;;;;;;;30.79;29.03;97685.16;105782;1285;22842;-89
2022/06/24 11:57:09;;;;;;;5.30;2.20;;;;;;;31.00;28.86;97686.48;105702;1285;22688;-92
2022/06/24 11:59:38;;;;;;;7.50;2.20;;;;;;;31.14;28.35;97686.79;105574;1285;24363;-87
2022/06/24 12:02:14;;;;;;;6.40;1.80;;;;;;;31.18;27.92;97680.70;105410;1285;22715;-89